Historique des mesures à Cassis (13260), France
Quotidien Résumé Fevrier 10, 2018 Unités:  US    Métrique   Métrique/US
« Précédent (Jour)
Suivant (Jour) »
Quotidien Hebdomadaire Mensuel Annuel Période au choix
  Maximum: Minimum: Moyenne:
Température: 32 °F 40.8 °F 44.1 °F
Point de rosée: 32 °F 27.9 °F 30.7 °F
Humidité: Humidity % 45 % 56 %
Vitesse du vent: WindSpeedKMH mph 0.0 mph 10.5 mph
Rafales: WindSpeedGustKMH mph - -
Vent:- - SW
Pression: 0 in 29.7 in -
Précipitations: 0 in    
Historical Graphs
 
 
Mesures pour : Fevrier 10, 2018
Heure Temperature Point de rosée Pression Vent Vitesse du vent Rafales Humidité Pluie (par heure) Conditions
32 °F 32 °F 0 in Calm     Humidity % 0 in SoftwareType W/m2
00:12 43 °F 31.3 °F 29.8 in West 2.6 mph 6.4 mph 63 % 0 in open2300-1.11 W/m2
01:12 42.4 °F 31.1 °F 29.8 in WNW 8.2 mph 12.6 mph 64 % 0 in open2300-1.11 W/m2
02:12 41.7 °F 31.3 °F 29.8 in WNW 16.9 mph 16.9 mph 66 % 0 in open2300-1.11 W/m2
03:12 41.5 °F 31.5 °F 29.8 in West 4.7 mph 16.9 mph 67 % 0 in open2300-1.11 W/m2
04:12 41.7 °F 32 °F 29.7 in NNW 20.6 mph 20.6 mph 68 % 0 in open2300-1.11 W/m2
05:12 41.5 °F 32.2 °F 29.7 in NNW 7.2 mph 9.0 mph 69 % 0 in open2300-1.11 W/m2
06:12 41.4 °F 32 °F 29.7 in Calm   2.9 mph 69 % 0 in open2300-1.11 W/m2
07:12 40.8 °F 31.5 °F 29.8 in NNE 4.3 mph 4.3 mph 69 % 0 in open2300-1.11 W/m2
08:12 41.2 °F 30.9 °F 29.7 in NNW 5.0 mph 13.4 mph 67 % 0 in open2300-1.11 W/m2
09:12 43 °F 30.7 °F 29.8 in North 7.9 mph 7.9 mph 62 % 0 in open2300-1.11 W/m2
10:12 44.4 °F 30 °F 29.8 in North 4.0 mph 9.7 mph 57 % 0 in open2300-1.11 W/m2
11:12 47.1 °F 30.4 °F 29.8 in West 14.8 mph 14.8 mph 52 % 0 in open2300-1.11 W/m2
12:12 49.8 °F 31.5 °F 29.8 in WNW 16.6 mph 16.6 mph 49 % 0 in open2300-1.11 W/m2
13:12 51.6 °F 32.5 °F 29.8 in Calm   6.1 mph 48 % 0 in open2300-1.11 W/m2
14:12 52.9 °F 32 °F 29.8 in WNW 19.1 mph 19.1 mph 45 % 0 in open2300-1.11 W/m2
15:12 52.2 °F 32.5 °F 29.8 in WNW 20.9 mph 25.3 mph 47 % 0 in open2300-1.11 W/m2
16:12 51.1 °F 31.5 °F 29.8 in WNW 14.3 mph 23.0 mph 47 % 0 in open2300-1.11 W/m2
17:12 48.6 °F 30.7 °F 29.8 in NNE 8.2 mph 31.4 mph 50 % 0 in open2300-1.11 W/m2
18:12 45.3 °F 29.7 °F 29.8 in NNW 9.0 mph 9.0 mph 54 % 0 in open2300-1.11 W/m2
19:12 43 °F 28.8 °F 29.8 in WNW 24.1 mph 24.1 mph 57 % 0 in open2300-1.11 W/m2
20:12 42.1 °F 27.9 °F 29.8 in WNW 14.3 mph 17.2 mph 57 % 0 in open2300-1.11 W/m2
21:12 41.2 °F 28.4 °F 29.8 in WNW 16.9 mph 31.7 mph 60 % 0 in open2300-1.11 W/m2
22:12 40.8 °F 28.4 °F 29.8 in West 18.3 mph 19.5 mph 61 % 0 in open2300-1.11 W/m2
23:12 41.2 °F 28.8 °F 29.8 in ENE 5.5 mph 7.6 mph 61 % 0 in open2300-1.11 W/m2
Observations météo à CASSIS
WU-History script by Weather Underground - 1 mb